createdAt,value
2022-09-25T00:00:57.754Z,98254.53
2022-09-25T00:01:59.619Z,98255.56
2022-09-25T00:03:01.695Z,98252.91
2022-09-25T00:04:04.341Z,98253.97
2022-09-25T00:05:06.883Z,98252.91
2022-09-25T00:06:17.535Z,98251.06
2022-09-25T00:07:19.288Z,98250.25
2022-09-25T00:08:21.109Z,98259.50
2022-09-25T00:09:23.631Z,98256.06
2022-09-25T00:10:25.489Z,98253.97
2022-09-25T00:11:32.924Z,98263.78
2022-09-25T00:12:35.911Z,98264.03
2022-09-25T00:13:38.781Z,98255.81
2022-09-25T00:14:40.917Z,98247.47
2022-09-25T00:15:55.082Z,98253.16
2022-09-25T00:16:56.915Z,98252.00
2022-09-25T00:17:58.689Z,98254.66
2022-09-25T00:19:19.979Z,98254.66
2022-09-25T00:20:22.007Z,98256.06
2022-09-25T00:21:24.644Z,98254.88
2022-09-25T00:22:28.006Z,98258.34
2022-09-25T00:23:29.717Z,98253.25
2022-09-25T00:24:32.138Z,98243.44
2022-09-25T00:25:33.873Z,98240.78
2022-09-25T00:26:40.126Z,98236.28
2022-09-25T00:27:44.349Z,98234.66
2022-09-25T00:28:46.111Z,98247.16
2022-09-25T00:29:47.930Z,98239.16
2022-09-25T00:30:49.695Z,98246.34
2022-09-25T00:31:51.447Z,98244.72
2022-09-25T00:32:53.147Z,98246.56
2022-09-25T00:33:59.551Z,98238.38
2022-09-25T00:35:01.575Z,98243.91
2022-09-25T00:36:08.602Z,98235.94
2022-09-25T00:37:10.394Z,98238.59
2022-09-25T00:38:12.104Z,98230.63
2022-09-25T00:39:14.323Z,98227.16
2022-09-25T00:40:16.331Z,98233.28
2022-09-25T00:41:21.188Z,98227.41
2022-09-25T00:42:23.624Z,98229.00
2022-09-25T00:43:40.551Z,98232.25
2022-09-25T00:45:23.667Z,98234.34
2022-09-25T00:46:33.399Z,98227.41
2022-09-25T00:48:06.520Z,98229.00
2022-09-25T00:49:20.230Z,98238.28
2022-09-25T00:50:36.575Z,98234.22
2022-09-25T00:51:54.466Z,98232.34
2022-09-25T00:53:05.419Z,98233.63
2022-09-25T00:54:16.378Z,98232.59
2022-09-25T00:55:18.774Z,98227.28
2022-09-25T00:56:20.536Z,98232.03
2022-09-25T00:57:26.966Z,98223.47
2022-09-25T00:58:33.094Z,98223.25
2022-09-25T00:59:44.697Z,98223.00
2022-09-25T01:00:46.703Z,98222.44
2022-09-25T01:01:49.028Z,98226.94
2022-09-25T01:02:56.187Z,98227.75
2022-09-25T01:03:59.056Z,98230.66
2022-09-25T01:05:07.987Z,98223.25
2022-09-25T01:06:12.096Z,98230.41
2022-09-25T01:07:15.746Z,98237.56
2022-09-25T01:08:24.586Z,98227.75
2022-09-25T01:09:27.353Z,98225.56
2022-09-25T01:10:29.383Z,98231.69
2022-09-25T01:11:32.042Z,98229.03
2022-09-25T01:12:39.082Z,98229.84
2022-09-25T01:13:41.253Z,98230.06
2022-09-25T01:14:43.887Z,98232.72
2022-09-25T01:15:59.374Z,98233.88
2022-09-25T01:17:07.530Z,98226.13
2022-09-25T01:18:31.131Z,98225.31
2022-09-25T01:19:53.887Z,98221.88
2022-09-25T01:21:30.050Z,98227.41
2022-09-25T01:23:26.381Z,98218.16
2022-09-25T01:24:53.839Z,98222.09
2022-09-25T01:26:15.779Z,98219.66
2022-09-25T01:27:42.063Z,98216.66
2022-09-25T01:29:33.000Z,98212.72
2022-09-25T01:30:44.437Z,98221.16
2022-09-25T01:32:13.968Z,98215.06
2022-09-25T01:33:24.310Z,98225.09
2022-09-25T01:34:58.123Z,98221.41
2022-09-25T01:36:13.307Z,98225.34
2022-09-25T01:37:30.498Z,98215.53
2022-09-25T01:38:55.956Z,98216.34
2022-09-25T01:40:33.664Z,98224.28
2022-09-25T01:41:50.819Z,98223.94
2022-09-25T01:43:01.379Z,98219.66
2022-09-25T01:44:13.328Z,98221.28
2022-09-25T01:45:30.271Z,98229.84
2022-09-25T01:46:42.601Z,98218.63
2022-09-25T01:47:50.131Z,98220.47
2022-09-25T01:49:02.399Z,98220.47
2022-09-25T01:50:20.695Z,98218.19
2022-09-25T01:51:29.626Z,98215.16
2022-09-25T01:52:49.652Z,98217.38
2022-09-25T01:53:58.982Z,98216.81
2022-09-25T01:55:10.617Z,98222.13
2022-09-25T01:56:34.624Z,98215.75
2022-09-25T01:58:10.901Z,98215.53
2022-09-25T01:59:28.527Z,98213.09
2022-09-25T02:00:32.296Z,98220.47
2022-09-25T02:01:41.655Z,98220.47
2022-09-25T02:02:55.142Z,98219.22
2022-09-25T02:04:10.390Z,98220.03
2022-09-25T02:05:36.070Z,98222.22
2022-09-25T02:06:43.439Z,98221.66
2022-09-25T02:07:56.725Z,98220.84
2022-09-25T02:09:07.363Z,98222.69
2022-09-25T02:10:23.693Z,98223.25
2022-09-25T02:11:35.873Z,98217.38
2022-09-25T02:12:46.353Z,98211.81
2022-09-25T02:13:58.078Z,98212.63
2022-09-25T02:15:10.419Z,98211.81
2022-09-25T02:16:21.886Z,98219.00
2022-09-25T02:18:00.118Z,98215.28
2022-09-25T02:19:21.095Z,98215.16
2022-09-25T02:20:34.409Z,98206.75
2022-09-25T02:21:58.840Z,98210.78
2022-09-25T02:23:28.942Z,98205.69
2022-09-25T02:25:12.483Z,98209.41
2022-09-25T02:26:25.884Z,98208.84
2022-09-25T02:27:29.319Z,98212.50
2022-09-25T02:28:31.454Z,98205.81
2022-09-25T02:29:33.521Z,98212.75
2022-09-25T02:30:35.960Z,98219.66
2022-09-25T02:31:59.308Z,98220.03
2022-09-25T02:33:01.057Z,98210.66
2022-09-25T02:34:04.247Z,98211.69
2022-09-25T02:35:06.626Z,98214.34
2022-09-25T02:36:19.000Z,98221.06
2022-09-25T02:37:20.756Z,98217.25
2022-09-25T02:38:22.559Z,98213.53
2022-09-25T02:39:30.000Z,98213.31
2022-09-25T02:40:48.614Z,98212.63
2022-09-25T02:41:56.416Z,98208.59
2022-09-25T02:43:35.321Z,98212.63
2022-09-25T02:45:04.961Z,98203.63
2022-09-25T02:46:29.565Z,98213.44
2022-09-25T02:48:09.158Z,98211.81
2022-09-25T02:49:36.992Z,98212.88
2022-09-25T02:51:09.888Z,98211.00
2022-09-25T02:52:18.493Z,98210.66
2022-09-25T02:53:48.560Z,98208.00
2022-09-25T02:55:51.601Z,98216.56
2022-09-25T02:57:04.916Z,98216.81
2022-09-25T02:58:30.010Z,98210.66
2022-09-25T02:59:38.573Z,98212.75
2022-09-25T03:00:46.095Z,98214.81
2022-09-25T03:01:49.128Z,98215.88
2022-09-25T03:02:59.902Z,98214.00
2022-09-25T03:04:05.122Z,98216.44
2022-09-25T03:05:13.213Z,98204.19
2022-09-25T03:06:15.830Z,98214.59
2022-09-25T03:07:19.213Z,98211.13
2022-09-25T03:08:38.020Z,98204.19
2022-09-25T03:09:46.302Z,98211.13
2022-09-25T03:10:48.296Z,98206.84
2022-09-25T03:11:50.051Z,98201.78
2022-09-25T03:12:51.744Z,98203.88
2022-09-25T03:14:02.973Z,98198.31
2022-09-25T03:15:05.992Z,98199.59
2022-09-25T03:16:25.261Z,98198.56
2022-09-25T03:17:27.509Z,98200.63
2022-09-25T03:18:31.363Z,98194.72
2022-09-25T03:19:34.723Z,98194.97
2022-09-25T03:20:36.536Z,98193.09
2022-09-25T03:21:38.344Z,98196.81
2022-09-25T03:22:40.034Z,98196.00
2022-09-25T03:23:42.011Z,98195.19
2022-09-25T03:24:43.770Z,98196.00
2022-09-25T03:25:49.882Z,98200.50
2022-09-25T03:26:53.884Z,98197.84
2022-09-25T03:27:55.592Z,98202.94
2022-09-25T03:29:02.280Z,98202.13
2022-09-25T03:30:06.032Z,98199.22
2022-09-25T03:31:11.365Z,98200.03
2022-09-25T03:32:13.949Z,98204.31
2022-09-25T03:33:17.518Z,98203.50
2022-09-25T03:34:19.897Z,98199.81
2022-09-25T03:35:21.589Z,98197.16
2022-09-25T03:36:27.970Z,98193.25
2022-09-25T03:37:29.902Z,98199.59
2022-09-25T03:38:32.233Z,98199.34
2022-09-25T03:39:33.925Z,98199.34
2022-09-25T03:40:36.819Z,98198.56
2022-09-25T03:41:38.541Z,98195.66
2022-09-25T03:42:40.291Z,98198.56
2022-09-25T03:43:43.664Z,98188.50
2022-09-25T03:44:45.412Z,98194.63
2022-09-25T03:45:47.202Z,98195.41
2022-09-25T03:46:48.915Z,98188.25
2022-09-25T03:47:50.864Z,98188.25
2022-09-25T03:48:53.929Z,98184.00
2022-09-25T03:49:55.636Z,98196.47
2022-09-25T03:50:58.187Z,98190.91
2022-09-25T03:52:00.187Z,98190.09
2022-09-25T03:53:01.877Z,98186.41
2022-09-25T03:54:04.082Z,98190.91
2022-09-25T03:55:06.898Z,98184.78
2022-09-25T03:56:14.677Z,98194.16
2022-09-25T03:57:16.451Z,98193.34
2022-09-25T03:58:18.710Z,98192.53
2022-09-25T03:59:20.454Z,98191.50
2022-09-25T04:00:23.947Z,98194.16
2022-09-25T04:01:27.580Z,98204.78
2022-09-25T04:02:29.611Z,98191.72
2022-09-25T04:03:33.704Z,98202.91
2022-09-25T04:04:37.508Z,98201.06
2022-09-25T04:05:39.436Z,98193.09
2022-09-25T04:06:41.211Z,98204.53
2022-09-25T04:07:43.110Z,98194.94
2022-09-25T04:08:46.945Z,98198.22
2022-09-25T04:09:48.738Z,98205.34
2022-09-25T04:10:50.502Z,98208.84
2022-09-25T04:11:52.201Z,98202.69
2022-09-25T04:12:54.373Z,98213.09
2022-09-25T04:13:56.841Z,98206.75
2022-09-25T04:14:58.548Z,98208.59
2022-09-25T04:16:03.504Z,98213.09
2022-09-25T04:17:05.288Z,98212.06
2022-09-25T04:18:06.998Z,98198.22
2022-09-25T04:19:08.708Z,98202.25
2022-09-25T04:20:10.397Z,98199.81
2022-09-25T04:21:14.499Z,98201.44
2022-09-25T04:22:16.200Z,98196.13
2022-09-25T04:23:18.313Z,98198.22
2022-09-25T04:24:38.536Z,98199.81
2022-09-25T04:25:40.248Z,98198.78
2022-09-25T04:26:42.003Z,98195.06
2022-09-25T04:27:46.155Z,98199.81
2022-09-25T04:28:47.943Z,98189.41
2022-09-25T04:29:50.200Z,98196.13
2022-09-25T04:30:52.693Z,98204.31
2022-09-25T04:32:12.906Z,98194.94
2022-09-25T04:33:33.962Z,98190.25
2022-09-25T04:34:35.781Z,98200.25
2022-09-25T04:35:37.991Z,98202.91
2022-09-25T04:36:39.709Z,98194.94
2022-09-25T04:37:41.565Z,98202.13
2022-09-25T04:38:43.926Z,98204.78
2022-09-25T04:39:45.664Z,98206.38
2022-09-25T04:40:47.448Z,98202.69
2022-09-25T04:41:49.217Z,98198.41
2022-09-25T04:43:00.391Z,98206.19
2022-09-25T04:44:05.382Z,98195.56
2022-09-25T04:45:07.465Z,98196.56
2022-09-25T04:46:16.716Z,98203.53
2022-09-25T04:47:25.243Z,98193.91
2022-09-25T04:48:26.953Z,98200.25
2022-09-25T04:49:29.192Z,98196.56
2022-09-25T04:50:31.848Z,98193.09
2022-09-25T04:51:33.563Z,98199.44
2022-09-25T04:52:35.519Z,98190.69
2022-09-25T04:53:37.384Z,98197.03
2022-09-25T04:54:39.269Z,98192.53
2022-09-25T04:55:40.975Z,98199.69
2022-09-25T04:56:45.730Z,98195.41
2022-09-25T04:57:58.827Z,98189.88
2022-09-25T04:59:00.915Z,98189.31
2022-09-25T05:00:03.278Z,98195.41
2022-09-25T05:01:09.016Z,98199.34
2022-09-25T05:02:12.338Z,98197.50
2022-09-25T05:03:14.312Z,98200.97
2022-09-25T05:04:16.206Z,98200.16
2022-09-25T05:05:19.745Z,98199.94
2022-09-25T05:06:22.918Z,98190.09
2022-09-25T05:07:24.783Z,98184.00
2022-09-25T05:08:27.775Z,98195.41
2022-09-25T05:09:30.631Z,98196.22
2022-09-25T05:10:39.632Z,98188.03
2022-09-25T05:11:41.559Z,98193.34
2022-09-25T05:12:43.314Z,98192.53
2022-09-25T05:13:46.391Z,98192.53
2022-09-25T05:14:48.121Z,98194.94
2022-09-25T05:15:50.034Z,98192.28
2022-09-25T05:16:52.262Z,98190.69
2022-09-25T05:18:22.085Z,98195.06
2022-09-25T05:19:23.947Z,98191.25
2022-09-25T05:20:25.805Z,98191.50
2022-09-25T05:21:27.525Z,98201.06
2022-09-25T05:22:29.310Z,98202.91
2022-09-25T05:23:31.098Z,98188.84
2022-09-25T05:24:32.926Z,98193.91
2022-09-25T05:25:35.072Z,98193.34
2022-09-25T05:26:37.899Z,98189.88
2022-09-25T05:27:39.612Z,98187.22
2022-09-25T05:28:41.345Z,98194.94
2022-09-25T05:29:43.046Z,98183.53
2022-09-25T05:30:44.773Z,98189.63
2022-09-25T05:31:48.756Z,98188.84
2022-09-25T05:32:52.594Z,98182.72
2022-09-25T05:33:54.957Z,98188.03
2022-09-25T05:34:56.758Z,98192.53
2022-09-25T05:36:07.308Z,98189.41
2022-09-25T05:37:09.047Z,98188.84
2022-09-25T05:38:10.840Z,98187.22
2022-09-25T05:39:14.651Z,98187.44
2022-09-25T05:40:19.403Z,98184.56
2022-09-25T05:41:21.504Z,98185.84
2022-09-25T05:42:23.284Z,98193.81
2022-09-25T05:43:25.342Z,98196.47
2022-09-25T05:44:28.273Z,98195.41
2022-09-25T05:45:30.004Z,98196.69
2022-09-25T05:46:31.803Z,98196.47
2022-09-25T05:47:33.549Z,98203.63
2022-09-25T05:48:35.579Z,98198.06
2022-09-25T05:49:37.282Z,98193.34
2022-09-25T05:50:39.019Z,98200.97
2022-09-25T05:51:40.725Z,98197.28
2022-09-25T05:52:43.210Z,98196.22
2022-09-25T05:53:44.916Z,98198.88
2022-09-25T05:54:46.716Z,98194.38
2022-09-25T05:55:58.251Z,98202.34
2022-09-25T05:57:00.032Z,98197.28
2022-09-25T05:58:05.118Z,98205.47
2022-09-25T05:59:06.829Z,98195.66
2022-09-25T06:00:10.087Z,98198.31
2022-09-25T06:01:11.836Z,98202.00
2022-09-25T06:02:13.613Z,98196.13
2022-09-25T06:03:16.264Z,98196.94
2022-09-25T06:04:18.086Z,98204.53
2022-09-25T06:05:20.083Z,98204.53
2022-09-25T06:06:26.647Z,98202.69
2022-09-25T06:07:29.459Z,98211.47
2022-09-25T06:08:31.596Z,98209.28
2022-09-25T06:09:33.363Z,98199.47
2022-09-25T06:10:35.550Z,98199.47
2022-09-25T06:11:37.306Z,98198.66
2022-09-25T06:12:39.027Z,98202.13
2022-09-25T06:13:42.611Z,98194.16
2022-09-25T06:14:44.665Z,98200.50
2022-09-25T06:15:46.441Z,98199.69
2022-09-25T06:16:51.072Z,98201.06
2022-09-25T06:17:52.786Z,98206.38
2022-09-25T06:18:54.573Z,98204.53
2022-09-25T06:19:56.289Z,98205.94
2022-09-25T06:21:05.055Z,98207.56
2022-09-25T06:22:06.781Z,98203.50
2022-09-25T06:23:08.504Z,98200.84
2022-09-25T06:24:10.859Z,98207.56
2022-09-25T06:25:15.281Z,98203.06
2022-09-25T06:26:17.059Z,98204.91
2022-09-25T06:27:18.768Z,98203.88
2022-09-25T06:28:20.559Z,98201.22
2022-09-25T06:29:22.260Z,98195.91
2022-09-25T06:30:27.545Z,98200.16
2022-09-25T06:31:30.290Z,98202.59
2022-09-25T06:32:32.063Z,98207.66
2022-09-25T06:33:34.004Z,98203.16
2022-09-25T06:34:35.706Z,98199.69
2022-09-25T06:35:45.318Z,98208.22
2022-09-25T06:36:47.106Z,98209.28
2022-09-25T06:37:48.818Z,98207.66
2022-09-25T06:38:54.897Z,98201.88
2022-09-25T06:39:56.731Z,98201.31
2022-09-25T06:41:00.441Z,98210.66
2022-09-25T06:42:03.069Z,98201.88
2022-09-25T06:43:07.134Z,98204.53
2022-09-25T06:44:09.085Z,98196.56
2022-09-25T06:45:11.435Z,98208.00
2022-09-25T06:46:13.236Z,98204.31
2022-09-25T06:47:18.459Z,98209.63
2022-09-25T06:48:22.049Z,98202.25
2022-09-25T06:49:23.858Z,98208.59
2022-09-25T06:50:31.519Z,98204.31
2022-09-25T06:51:35.361Z,98211.81
2022-09-25T06:52:44.521Z,98216.09
2022-09-25T06:53:46.350Z,98212.63
2022-09-25T06:54:48.057Z,98219.78
2022-09-25T06:55:50.949Z,98217.94
2022-09-25T06:56:52.688Z,98219.78
2022-09-25T06:57:54.443Z,98215.06
2022-09-25T06:58:56.380Z,98216.09
2022-09-25T06:59:58.229Z,98224.88
2022-09-25T07:00:59.994Z,98221.16
2022-09-25T07:02:21.858Z,98214.25
2022-09-25T07:03:42.689Z,98220.38
2022-09-25T07:04:44.430Z,98212.38
2022-09-25T07:05:48.400Z,98220.38
2022-09-25T07:06:50.385Z,98221.41
2022-09-25T07:07:52.184Z,98213.19
2022-09-25T07:08:56.239Z,98223.25
2022-09-25T07:09:57.968Z,98216.91
2022-09-25T07:11:01.499Z,98220.59
2022-09-25T07:12:03.259Z,98220.59
2022-09-25T07:13:05.471Z,98219.00
2022-09-25T07:14:09.288Z,98213.44
2022-09-25T07:15:11.785Z,98223.03
2022-09-25T07:16:17.565Z,98222.78
2022-09-25T07:17:19.404Z,98223.81
2022-09-25T07:18:23.752Z,98227.06
2022-09-25T07:19:27.747Z,98223.59
2022-09-25T07:20:30.292Z,98229.72
2022-09-25T07:21:32.261Z,98224.41
2022-09-25T07:22:34.230Z,98228.66
2022-09-25T07:23:36.686Z,98229.47
2022-09-25T07:24:38.969Z,98225.78
2022-09-25T07:25:41.192Z,98230.28
2022-09-25T07:26:43.407Z,98227.63
2022-09-25T07:27:45.626Z,98230.88
2022-09-25T07:28:47.475Z,98230.66
2022-09-25T07:29:49.182Z,98218.41
2022-09-25T07:30:50.917Z,98216.56
2022-09-25T07:31:52.740Z,98228.00
2022-09-25T07:32:59.801Z,98221.63
2022-09-25T07:34:08.806Z,98225.91
2022-09-25T07:35:10.931Z,98222.44
2022-09-25T07:36:14.294Z,98220.13
2022-09-25T07:37:16.869Z,98219.31
2022-09-25T07:38:19.437Z,98225.44
2022-09-25T07:39:21.204Z,98221.16
2022-09-25T07:40:24.118Z,98218.50
2022-09-25T07:41:26.301Z,98220.91
2022-09-25T07:42:28.033Z,98227.84
2022-09-25T07:43:29.754Z,98230.50
2022-09-25T07:44:37.471Z,98221.50
2022-09-25T07:45:39.934Z,98228.66
2022-09-25T07:46:43.431Z,98230.06
2022-09-25T07:47:45.209Z,98223.13
2022-09-25T07:48:50.378Z,98230.28
2022-09-25T07:49:52.120Z,98224.16
2022-09-25T07:50:55.546Z,98226.81
2022-09-25T07:51:57.314Z,98227.41
2022-09-25T07:52:59.842Z,98235.38
2022-09-25T07:54:01.589Z,98233.75
2022-09-25T07:55:03.342Z,98232.72
2022-09-25T07:56:07.174Z,98233.53
2022-09-25T07:57:09.225Z,98226.59
2022-09-25T07:58:11.943Z,98233.28
2022-09-25T07:59:13.697Z,98230.06
2022-09-25T08:00:15.687Z,98231.69
2022-09-25T08:01:17.561Z,98230.63
2022-09-25T08:02:19.483Z,98230.63
2022-09-25T08:03:21.812Z,98223.69
2022-09-25T08:04:23.562Z,98223.47
2022-09-25T08:05:27.260Z,98228.78
2022-09-25T08:06:29.056Z,98234.34
2022-09-25T08:07:30.921Z,98227.97
2022-09-25T08:08:34.618Z,98227.72
2022-09-25T08:09:36.421Z,98221.63
2022-09-25T08:10:38.204Z,98230.63
2022-09-25T08:11:39.970Z,98235.13
2022-09-25T08:12:43.152Z,98229.00
2022-09-25T08:13:46.261Z,98225.31
2022-09-25T08:14:48.015Z,98233.28
2022-09-25T08:15:49.868Z,98230.28
2022-09-25T08:16:55.901Z,98234.34
2022-09-25T08:17:57.761Z,98232.72
2022-09-25T08:18:59.526Z,98231.09
2022-09-25T08:20:01.809Z,98234.56
2022-09-25T08:21:05.089Z,98230.28
2022-09-25T08:22:06.831Z,98236.63
2022-09-25T08:23:08.561Z,98235.81
2022-09-25T08:24:10.795Z,98231.09
2022-09-25T08:25:12.969Z,98228.66
2022-09-25T08:26:19.133Z,98232.94
2022-09-25T08:27:20.876Z,98228.22
2022-09-25T08:28:23.179Z,98231.91
2022-09-25T08:29:24.932Z,98225.78
2022-09-25T08:30:26.716Z,98233.75
2022-09-25T08:31:28.687Z,98228.22
2022-09-25T08:32:34.306Z,98230.63
2022-09-25T08:33:37.306Z,98230.88
2022-09-25T08:34:41.715Z,98230.63
2022-09-25T08:35:44.180Z,98224.75
2022-09-25T08:36:50.074Z,98221.84
2022-09-25T08:37:51.843Z,98238.59
2022-09-25T08:38:56.304Z,98230.63
2022-09-25T08:39:59.915Z,98229.00
2022-09-25T08:41:08.785Z,98226.13
2022-09-25T08:42:23.087Z,98230.41
2022-09-25T08:43:28.106Z,98225.31
2022-09-25T08:45:22.180Z,98230.97
2022-09-25T08:47:04.991Z,98229.91
2022-09-25T08:48:56.351Z,98227.50
2022-09-25T08:50:14.504Z,98219.53
2022-09-25T08:51:16.873Z,98224.50
2022-09-25T08:52:22.694Z,98218.97
2022-09-25T08:53:26.361Z,98218.97
2022-09-25T08:54:31.953Z,98215.81
2022-09-25T08:55:58.878Z,98220.91
2022-09-25T08:57:16.273Z,98205.56
2022-09-25T08:58:29.673Z,98216.19
2022-09-25T08:59:40.622Z,98208.22
2022-09-25T09:00:45.224Z,98216.19
2022-09-25T09:01:54.713Z,98220.44
2022-09-25T09:02:59.325Z,98215.13
2022-09-25T09:04:19.609Z,98214.66
2022-09-25T09:05:29.906Z,98210.16
2022-09-25T09:06:34.407Z,98220.53
2022-09-25T09:07:44.164Z,98215.78
2022-09-25T09:09:00.079Z,98216.38
2022-09-25T09:10:38.042Z,98215.09
2022-09-25T09:11:57.660Z,98212.69
2022-09-25T09:13:22.461Z,98208.97
2022-09-25T09:14:31.363Z,98213.50
2022-09-25T09:15:46.603Z,98203.66
2022-09-25T09:17:10.475Z,98206.91
2022-09-25T09:18:37.462Z,98209.56
2022-09-25T09:19:39.195Z,98210.59
2022-09-25T09:21:08.044Z,98208.28
2022-09-25T09:22:12.565Z,98211.16
2022-09-25T09:23:20.826Z,98213.34
2022-09-25T09:24:46.155Z,98213.69
2022-09-25T09:26:08.961Z,98215.56
2022-09-25T09:27:36.185Z,98215.31
2022-09-25T09:29:19.103Z,98213.47
2022-09-25T09:30:34.729Z,98211.03
2022-09-25T09:32:01.686Z,98217.16
2022-09-25T09:33:47.238Z,98216.13
2022-09-25T09:35:06.445Z,98212.66
2022-09-25T09:36:37.630Z,98216.13
2022-09-25T09:37:41.948Z,98213.69
2022-09-25T09:39:14.347Z,98217.25
2022-09-25T09:41:10.261Z,98218.53
2022-09-25T09:42:21.785Z,98210.44
2022-09-25T09:43:43.020Z,98218.53
2022-09-25T09:44:54.298Z,98211.84
2022-09-25T09:46:08.366Z,98216.38
2022-09-25T09:47:45.207Z,98222.25
2022-09-25T09:49:17.047Z,98215.31
2022-09-25T09:50:51.409Z,98210.00
2022-09-25T09:52:01.374Z,98214.97
2022-09-25T09:53:27.904Z,98213.09
2022-09-25T09:54:50.586Z,98215.31
2022-09-25T09:56:01.106Z,98212.91
2022-09-25T09:57:14.823Z,98219.03
2022-09-25T09:58:58.305Z,98215.88
2022-09-25T10:00:18.047Z,98216.94
2022-09-25T10:01:41.797Z,98211.25
2022-09-25T10:03:01.466Z,98205.47
2022-09-25T10:04:11.064Z,98213.47
2022-09-25T10:05:32.547Z,98212.41
2022-09-25T10:06:43.283Z,98211.59
2022-09-25T10:07:48.783Z,98212.66
2022-09-25T10:08:50.529Z,98206.75
2022-09-25T10:09:54.725Z,98215.31
2022-09-25T10:10:59.194Z,98210.00
2022-09-25T10:12:12.144Z,98212.41
2022-09-25T10:13:38.184Z,98217.00
2022-09-25T10:14:45.739Z,98213.78
2022-09-25T10:15:57.987Z,98211.94
2022-09-25T10:17:01.993Z,98211.13
2022-09-25T10:18:04.671Z,98207.09
2022-09-25T10:19:19.171Z,98214.34
2022-09-25T10:20:24.878Z,98210.66
2022-09-25T10:21:51.628Z,98211.69
2022-09-25T10:22:58.377Z,98208.00
2022-09-25T10:24:02.988Z,98209.84
2022-09-25T10:25:06.463Z,98207.19
2022-09-25T10:26:38.114Z,98205.47
2022-09-25T10:27:48.886Z,98201.63
2022-09-25T10:28:51.049Z,98201.06
2022-09-25T10:30:25.153Z,98198.53
2022-09-25T10:31:33.608Z,98201.41
2022-09-25T10:32:42.082Z,98201.41
2022-09-25T10:34:13.870Z,98202.00
2022-09-25T10:35:24.342Z,98207.34
2022-09-25T10:36:53.067Z,98206.03
2022-09-25T10:38:00.255Z,98205.72
2022-09-25T10:39:39.165Z,98205.47
2022-09-25T10:40:38.183Z,98204.19
2022-09-25T10:41:44.262Z,98198.88
2022-09-25T10:42:46.013Z,98203.38
2022-09-25T10:43:58.219Z,98203.38
2022-09-25T10:45:00.062Z,98199.91
2022-09-25T10:46:14.770Z,98198.63
2022-09-25T10:47:38.116Z,98203.72
2022-09-25T10:49:00.005Z,98206.38
2022-09-25T10:50:26.990Z,98202.22
2022-09-25T10:51:29.268Z,98203.47
2022-09-25T10:52:52.179Z,98204.63
2022-09-25T10:54:13.570Z,98207.84
2022-09-25T10:55:21.175Z,98208.91
2022-09-25T10:56:35.927Z,98207.38
2022-09-25T10:57:38.904Z,98208.66
2022-09-25T10:58:54.809Z,98210.03
2022-09-25T10:59:59.392Z,98214.31
2022-09-25T11:01:03.921Z,98210.84
2022-09-25T11:02:40.388Z,98216.25
2022-09-25T11:03:55.205Z,98214.16
2022-09-25T11:04:58.098Z,98208.53
2022-09-25T11:06:20.793Z,98209.09
2022-09-25T11:07:27.150Z,98212.78
2022-09-25T11:08:34.335Z,98205.63
2022-09-25T11:09:44.445Z,98206.19
2022-09-25T11:10:58.847Z,98202.72
2022-09-25T11:12:18.637Z,98203.84
2022-09-25T11:13:26.100Z,98211.81
2022-09-25T11:14:35.489Z,98207.56
2022-09-25T11:15:39.106Z,98208.84
2022-09-25T11:16:48.680Z,98206.06
2022-09-25T11:17:56.373Z,98195.63
2022-09-25T11:19:31.278Z,98211.44
2022-09-25T11:20:33.178Z,98203.16
2022-09-25T11:22:00.089Z,98207.50
2022-09-25T11:23:29.265Z,98208.41
2022-09-25T11:25:06.982Z,98210.81
2022-09-25T11:26:31.255Z,98207.91
2022-09-25T11:27:54.407Z,98210.34
2022-09-25T11:29:23.430Z,98213.56
2022-09-25T11:30:31.068Z,98208.47
2022-09-25T11:31:37.696Z,98208.47
2022-09-25T11:32:43.503Z,98210.19
2022-09-25T11:34:17.928Z,98208.41
2022-09-25T11:35:55.449Z,98205.28
2022-09-25T11:37:23.029Z,98199.72
2022-09-25T11:39:14.061Z,98201.34
2022-09-25T11:40:56.073Z,98207.47
2022-09-25T11:42:09.143Z,98194.41
2022-09-25T11:43:16.859Z,98194.41
2022-09-25T11:44:54.147Z,98202.47
2022-09-25T11:46:07.356Z,98199.78
2022-09-25T11:47:36.575Z,98199.34
2022-09-25T11:48:59.055Z,98196.88
2022-09-25T11:50:02.107Z,98188.09
2022-09-25T11:51:43.649Z,98193.50
2022-09-25T11:53:13.815Z,98187.13
2022-09-25T11:54:59.482Z,98186.66
2022-09-25T11:56:24.480Z,98186.16
2022-09-25T11:57:53.147Z,98188.25
2022-09-25T11:59:38.351Z,98190.00
2022-09-25T12:01:13.311Z,98186.03
2022-09-25T12:02:57.914Z,98187.16
2022-09-25T12:04:14.880Z,98178.84
2022-09-25T12:05:59.924Z,98184.72
2022-09-25T12:07:40.780Z,98184.47
2022-09-25T12:09:03.481Z,98182.06
2022-09-25T12:10:35.172Z,98183.47
2022-09-25T12:12:32.825Z,98180.31
2022-09-25T12:14:14.022Z,98168.03
2022-09-25T12:15:52.539Z,98169.41
2022-09-25T12:17:56.146Z,98172.06
2022-09-25T12:19:17.824Z,98165.13
2022-09-25T12:20:40.513Z,98165.13
2022-09-25T12:22:16.121Z,98161.41
2022-09-25T12:23:38.843Z,98157.69
2022-09-25T12:25:02.015Z,98159.56
2022-09-25T12:26:39.327Z,98156.41
2022-09-25T12:27:52.874Z,98161.16
2022-09-25T12:29:37.159Z,98161.97
2022-09-25T12:31:17.333Z,98159.84
2022-09-25T12:33:25.671Z,98166.59
2022-09-25T12:34:52.550Z,98169.97
2022-09-25T12:36:08.819Z,98161.16
2022-09-25T12:37:43.601Z,98165.44
2022-09-25T12:39:01.931Z,98161.97
2022-09-25T12:40:32.044Z,98160.59
2022-09-25T12:41:50.924Z,98163.56
2022-09-25T12:43:04.934Z,98160.34
2022-09-25T12:44:29.733Z,98165.19
2022-09-25T12:45:49.471Z,98164.94
2022-09-25T12:47:15.586Z,98160.66
2022-09-25T12:48:44.058Z,98164.72
2022-09-25T12:50:03.799Z,98162.28
2022-09-25T12:51:29.698Z,98162.63
2022-09-25T12:52:44.878Z,98166.34
2022-09-25T12:54:23.197Z,98166.88
2022-09-25T12:56:09.637Z,98169.06
2022-09-25T12:57:37.115Z,98155.44
2022-09-25T12:59:00.940Z,98165.03
2022-09-25T13:00:24.063Z,98158.91
2022-09-25T13:01:45.886Z,98161.56
2022-09-25T13:03:22.577Z,98149.84
2022-09-25T13:05:23.968Z,98143.47
2022-09-25T13:06:59.687Z,98149.03
2022-09-25T13:08:19.192Z,98142.66
2022-09-25T13:09:43.557Z,98151.47
2022-09-25T13:10:59.185Z,98146.13
2022-09-25T13:12:30.892Z,98149.09
2022-09-25T13:13:45.262Z,98140.31
2022-09-25T13:15:04.716Z,98144.56
2022-09-25T13:16:06.757Z,98153.31
2022-09-25T13:17:15.223Z,98145.88
2022-09-25T13:18:24.166Z,98142.16
2022-09-25T13:19:29.577Z,98149.09
2022-09-25T13:20:35.068Z,98148.28
2022-09-25T13:21:45.592Z,98143.56
2022-09-25T13:22:47.653Z,98142.50
2022-09-25T13:23:54.070Z,98148.38
2022-09-25T13:25:14.102Z,98146.03
2022-09-25T13:26:24.321Z,98154.00
2022-09-25T13:27:26.643Z,98156.94
2022-09-25T13:29:04.318Z,98147.72
2022-09-25T13:30:07.114Z,98158.03
2022-09-25T13:31:21.181Z,98152.50
2022-09-25T13:32:30.638Z,98157.00
2022-09-25T13:33:50.165Z,98166.66
2022-09-25T13:34:58.766Z,98160.78
2022-09-25T13:36:40.507Z,98160.84
2022-09-25T13:37:42.547Z,98151.75
2022-09-25T13:39:04.830Z,98156.25
2022-09-25T13:40:43.871Z,98153.44
2022-09-25T13:41:58.953Z,98161.19
2022-09-25T13:43:24.254Z,98156.66
2022-09-25T13:44:43.658Z,98147.84
2022-09-25T13:45:45.473Z,98145.91
2022-09-25T13:46:47.232Z,98152.84
2022-09-25T13:48:30.240Z,98147.59
2022-09-25T13:49:35.939Z,98148.66
2022-09-25T13:50:46.609Z,98152.38
2022-09-25T13:51:48.349Z,98153.44
2022-09-25T13:53:09.971Z,98150.75
2022-09-25T13:54:11.657Z,98154.22